sensor_id;sensor_type;location;lat;lon;timestamp;pressure;altitude;pressure_sealevel;temperature;humidity
65872;BME280;52653;50.080;21.992;2023-06-26T00:01:01;99029.20;;;18.69;78.72
65872;BME280;52653;50.080;21.992;2023-06-26T00:03:54;99030.97;;;18.69;78.80
65872;BME280;52653;50.080;21.992;2023-06-26T00:06:27;99026.04;;;18.68;78.80
65872;BME280;52653;50.080;21.992;2023-06-26T00:09:00;99024.47;;;18.67;78.47
65872;BME280;52653;50.080;21.992;2023-06-26T00:11:33;99022.88;;;18.67;78.45
65872;BME280;52653;50.080;21.992;2023-06-26T00:14:07;99021.89;;;18.65;78.44
65872;BME280;52653;50.080;21.992;2023-06-26T00:16:48;99018.77;;;18.63;78.62
65872;BME280;52653;50.080;21.992;2023-06-26T00:19:21;99016.52;;;18.61;78.78
65872;BME280;52653;50.080;21.992;2023-06-26T00:21:53;99017.81;;;18.60;78.94
65872;BME280;52653;50.080;21.992;2023-06-26T00:24:26;99018.09;;;18.58;79.05
65872;BME280;52653;50.080;21.992;2023-06-26T00:27:00;99022.66;;;18.55;79.37
65872;BME280;52653;50.080;21.992;2023-06-26T00:29:32;99019.63;;;18.51;79.32
65872;BME280;52653;50.080;21.992;2023-06-26T00:32:05;99032.06;;;18.47;79.58
65872;BME280;52653;50.080;21.992;2023-06-26T00:34:39;99039.40;;;18.41;79.80
65872;BME280;52653;50.080;21.992;2023-06-26T00:37:12;99032.65;;;18.33;79.94
65872;BME280;52653;50.080;21.992;2023-06-26T00:39:46;99027.80;;;18.26;80.05
65872;BME280;52653;50.080;21.992;2023-06-26T00:42:19;99029.67;;;18.19;80.33
65872;BME280;52653;50.080;21.992;2023-06-26T00:44:51;99027.88;;;18.11;80.73
65872;BME280;52653;50.080;21.992;2023-06-26T00:47:25;99024.80;;;18.04;80.87
65872;BME280;52653;50.080;21.992;2023-06-26T00:49:59;99025.27;;;17.98;81.01
65872;BME280;52653;50.080;21.992;2023-06-26T00:52:32;99018.11;;;17.90;81.10
65872;BME280;52653;50.080;21.992;2023-06-26T00:55:07;99016.45;;;17.83;81.13
65872;BME280;52653;50.080;21.992;2023-06-26T00:57:39;99020.36;;;17.74;81.85
65872;BME280;52653;50.080;21.992;2023-06-26T01:00:17;99021.83;;;17.62;82.35
65872;BME280;52653;50.080;21.992;2023-06-26T01:02:51;99026.29;;;17.53;83.32
65872;BME280;52653;50.080;21.992;2023-06-26T01:05:24;99030.60;;;17.42;83.70
65872;BME280;52653;50.080;21.992;2023-06-26T01:07:58;99027.00;;;17.34;83.92
65872;BME280;52653;50.080;21.992;2023-06-26T01:10:32;99029.74;;;17.27;84.44
65872;BME280;52653;50.080;21.992;2023-06-26T01:13:05;99029.32;;;17.20;84.92
65872;BME280;52653;50.080;21.992;2023-06-26T01:15:39;99026.89;;;17.14;85.27
65872;BME280;52653;50.080;21.992;2023-06-26T01:18:11;99034.55;;;17.08;85.51
65872;BME280;52653;50.080;21.992;2023-06-26T01:20:46;99031.73;;;17.02;85.37
65872;BME280;52653;50.080;21.992;2023-06-26T01:23:24;99031.55;;;16.98;85.88
65872;BME280;52653;50.080;21.992;2023-06-26T01:26:13;99030.90;;;16.92;86.09
65872;BME280;52653;50.080;21.992;2023-06-26T01:28:47;99033.77;;;16.86;86.52
65872;BME280;52653;50.080;21.992;2023-06-26T01:31:21;99032.80;;;16.78;86.71
65872;BME280;52653;50.080;21.992;2023-06-26T01:33:54;99030.19;;;16.72;86.97
65872;BME280;52653;50.080;21.992;2023-06-26T01:36:29;99025.77;;;16.66;87.38
65872;BME280;52653;50.080;21.992;2023-06-26T01:39:02;99029.67;;;16.61;87.46
65872;BME280;52653;50.080;21.992;2023-06-26T01:41:34;99026.00;;;16.55;87.62
65872;BME280;52653;50.080;21.992;2023-06-26T01:44:15;99031.31;;;16.49;88.03
65872;BME280;52653;50.080;21.992;2023-06-26T01:46:58;99029.45;;;16.42;88.36
65872;BME280;52653;50.080;21.992;2023-06-26T01:49:38;99029.33;;;16.34;88.70
65872;BME280;52653;50.080;21.992;2023-06-26T01:52:19;99029.58;;;16.28;89.44
65872;BME280;52653;50.080;21.992;2023-06-26T01:54:58;99031.20;;;16.22;89.48
65872;BME280;52653;50.080;21.992;2023-06-26T01:57:35;99029.75;;;16.17;89.96
65872;BME280;52653;50.080;21.992;2023-06-26T02:00:10;99030.77;;;16.12;90.37
65872;BME280;52653;50.080;21.992;2023-06-26T02:02:46;99028.49;;;16.07;91.03
65872;BME280;52653;50.080;21.992;2023-06-26T02:05:20;99029.88;;;16.03;91.05
65872;BME280;52653;50.080;21.992;2023-06-26T02:07:54;99031.92;;;15.99;91.48
65872;BME280;52653;50.080;21.992;2023-06-26T02:10:27;99033.10;;;15.96;91.56
65872;BME280;52653;50.080;21.992;2023-06-26T02:13:00;99030.72;;;15.93;91.43
65872;BME280;52653;50.080;21.992;2023-06-26T02:15:33;99027.42;;;15.91;91.49
65872;BME280;52653;50.080;21.992;2023-06-26T02:18:12;99032.45;;;15.89;91.42
65872;BME280;52653;50.080;21.992;2023-06-26T02:20:44;99029.70;;;15.85;92.04
65872;BME280;52653;50.080;21.992;2023-06-26T02:23:17;99027.52;;;15.82;92.24
65872;BME280;52653;50.080;21.992;2023-06-26T02:25:50;99027.23;;;15.80;92.18
65872;BME280;52653;50.080;21.992;2023-06-26T02:28:23;99027.11;;;15.78;92.13
65872;BME280;52653;50.080;21.992;2023-06-26T02:30:55;99025.38;;;15.77;91.76
65872;BME280;52653;50.080;21.992;2023-06-26T02:33:28;99024.55;;;15.75;91.77
65872;BME280;52653;50.080;21.992;2023-06-26T02:36:00;99021.77;;;15.74;91.64
65872;BME280;52653;50.080;21.992;2023-06-26T02:38:33;99023.94;;;15.72;91.65
65872;BME280;52653;50.080;21.992;2023-06-26T02:41:07;99024.67;;;15.72;91.34
65872;BME280;52653;50.080;21.992;2023-06-26T02:43:42;99027.87;;;15.71;91.33
65872;BME280;52653;50.080;21.992;2023-06-26T02:46:15;99027.02;;;15.71;91.37
65872;BME280;52653;50.080;21.992;2023-06-26T02:48:48;99028.79;;;15.70;91.26
65872;BME280;52653;50.080;21.992;2023-06-26T02:51:21;99026.83;;;15.70;91.32
65872;BME280;52653;50.080;21.992;2023-06-26T02:53:55;99030.02;;;15.70;91.21
65872;BME280;52653;50.080;21.992;2023-06-26T02:56:28;99033.01;;;15.71;90.97
65872;BME280;52653;50.080;21.992;2023-06-26T02:59:01;99031.91;;;15.72;90.74
65872;BME280;52653;50.080;21.992;2023-06-26T03:01:34;99031.49;;;15.74;90.70
65872;BME280;52653;50.080;21.992;2023-06-26T03:04:07;99034.99;;;15.75;90.44
65872;BME280;52653;50.080;21.992;2023-06-26T03:06:41;99033.85;;;15.78;90.43
65872;BME280;52653;50.080;21.992;2023-06-26T03:09:13;99034.17;;;15.79;90.40
65872;BME280;52653;50.080;21.992;2023-06-26T03:11:48;99030.59;;;15.81;90.53
65872;BME280;52653;50.080;21.992;2023-06-26T03:14:21;99034.77;;;15.82;90.49
65872;BME280;52653;50.080;21.992;2023-06-26T03:16:53;99030.44;;;15.85;90.37
65872;BME280;52653;50.080;21.992;2023-06-26T03:19:31;99032.80;;;15.89;90.16
65872;BME280;52653;50.080;21.992;2023-06-26T03:22:19;99035.30;;;15.93;90.16
65872;BME280;52653;50.080;21.992;2023-06-26T03:24:52;99040.25;;;15.99;89.92
65872;BME280;52653;50.080;21.992;2023-06-26T03:27:25;99038.48;;;16.05;89.82
65872;BME280;52653;50.080;21.992;2023-06-26T03:29:58;99037.89;;;16.11;89.91
65872;BME280;52653;50.080;21.992;2023-06-26T03:32:32;99038.19;;;16.19;89.85
65872;BME280;52653;50.080;21.992;2023-06-26T03:35:06;99040.77;;;16.26;89.82
65872;BME280;52653;50.080;21.992;2023-06-26T03:37:40;99038.27;;;16.32;89.54
65872;BME280;52653;50.080;21.992;2023-06-26T03:40:14;99041.59;;;16.38;89.43
65872;BME280;52653;50.080;21.992;2023-06-26T03:42:47;99043.29;;;16.46;89.51
65872;BME280;52653;50.080;21.992;2023-06-26T03:45:20;99044.67;;;16.52;89.46
65872;BME280;52653;50.080;21.992;2023-06-26T03:47:53;99038.63;;;16.58;89.32
65872;BME280;52653;50.080;21.992;2023-06-26T03:50:26;99035.18;;;16.66;89.16
65872;BME280;52653;50.080;21.992;2023-06-26T03:53:00;99037.81;;;16.72;88.81
65872;BME280;52653;50.080;21.992;2023-06-26T03:55:33;99042.16;;;16.79;88.64
65872;BME280;52653;50.080;21.992;2023-06-26T03:58:07;99042.95;;;16.86;88.53
65872;BME280;52653;50.080;21.992;2023-06-26T04:00:41;99042.23;;;17.07;88.61
65872;BME280;52653;50.080;21.992;2023-06-26T04:03:14;99041.36;;;17.58;87.69
65872;BME280;52653;50.080;21.992;2023-06-26T04:05:47;99047.58;;;18.15;85.60
65872;BME280;52653;50.080;21.992;2023-06-26T04:08:23;99045.66;;;18.70;83.66
65872;BME280;52653;50.080;21.992;2023-06-26T04:10:56;99048.15;;;18.91;81.66
65872;BME280;52653;50.080;21.992;2023-06-26T04:13:29;99047.00;;;19.00;80.24
65872;BME280;52653;50.080;21.992;2023-06-26T04:16:04;99049.29;;;19.04;78.79
65872;BME280;52653;50.080;21.992;2023-06-26T04:18:37;99043.88;;;19.10;78.18
65872;BME280;52653;50.080;21.992;2023-06-26T04:21:11;99044.73;;;19.50;77.70
65872;BME280;52653;50.080;21.992;2023-06-26T04:23:44;99043.94;;;19.90;75.50
65872;BME280;52653;50.080;21.992;2023-06-26T04:26:18;99044.16;;;20.21;73.56
65872;BME280;52653;50.080;21.992;2023-06-26T04:28:53;99044.30;;;20.54;73.22
65872;BME280;52653;50.080;21.992;2023-06-26T04:31:25;99049.45;;;21.00;72.85
65872;BME280;52653;50.080;21.992;2023-06-26T04:33:58;99045.02;;;21.46;71.11
65872;BME280;52653;50.080;21.992;2023-06-26T04:36:31;99044.94;;;21.80;69.45
65872;BME280;52653;50.080;21.992;2023-06-26T04:39:12;99051.17;;;22.15;67.26
65872;BME280;52653;50.080;21.992;2023-06-26T04:41:45;99051.43;;;22.35;66.84
65872;BME280;52653;50.080;21.992;2023-06-26T04:44:20;99047.77;;;22.64;65.81
65872;BME280;52653;50.080;21.992;2023-06-26T04:46:53;99048.05;;;22.77;64.45
65872;BME280;52653;50.080;21.992;2023-06-26T04:49:25;99049.51;;;22.86;63.09
65872;BME280;52653;50.080;21.992;2023-06-26T04:52:00;99047.89;;;23.01;63.27
65872;BME280;52653;50.080;21.992;2023-06-26T04:54:32;99045.80;;;23.23;62.86
65872;BME280;52653;50.080;21.992;2023-06-26T04:57:05;99045.73;;;23.50;63.09
65872;BME280;52653;50.080;21.992;2023-06-26T04:59:38;99047.77;;;23.74;61.69
65872;BME280;52653;50.080;21.992;2023-06-26T05:02:14;99046.48;;;23.91;60.49
65872;BME280;52653;50.080;21.992;2023-06-26T05:04:47;99047.19;;;23.83;59.55
65872;BME280;52653;50.080;21.992;2023-06-26T05:07:20;99046.59;;;23.95;61.04
65872;BME280;52653;50.080;21.992;2023-06-26T05:09:53;99049.06;;;24.23;59.93
65872;BME280;52653;50.080;21.992;2023-06-26T05:12:27;99050.65;;;24.37;58.77
65872;BME280;52653;50.080;21.992;2023-06-26T05:15:03;99051.95;;;24.50;58.50
65872;BME280;52653;50.080;21.992;2023-06-26T05:17:36;99051.70;;;24.67;58.28
65872;BME280;52653;50.080;21.992;2023-06-26T05:20:11;99052.49;;;24.82;57.26
65872;BME280;52653;50.080;21.992;2023-06-26T05:22:44;99052.58;;;24.96;57.18
65872;BME280;52653;50.080;21.992;2023-06-26T05:25:18;99050.74;;;24.91;56.73
65872;BME280;52653;50.080;21.992;2023-06-26T05:27:53;99053.73;;;24.89;56.71
65872;BME280;52653;50.080;21.992;2023-06-26T05:30:28;99050.91;;;24.79;56.83
65872;BME280;52653;50.080;21.992;2023-06-26T05:33:02;99049.76;;;24.75;57.81
65872;BME280;52653;50.080;21.992;2023-06-26T05:35:37;99051.55;;;24.64;58.32
65872;BME280;52653;50.080;21.992;2023-06-26T05:38:11;99045.60;;;24.38;58.07
65872;BME280;52653;50.080;21.992;2023-06-26T05:40:47;99045.69;;;24.06;58.62
65872;BME280;52653;50.080;21.992;2023-06-26T05:43:21;99049.74;;;23.88;60.23
65872;BME280;52653;50.080;21.992;2023-06-26T05:45:57;99047.36;;;23.86;60.83
65872;BME280;52653;50.080;21.992;2023-06-26T05:48:31;99048.64;;;23.80;60.68
65872;BME280;52653;50.080;21.992;2023-06-26T05:51:04;99047.02;;;23.64;60.41
65872;BME280;52653;50.080;21.992;2023-06-26T05:53:40;99048.11;;;23.43;59.93
65872;BME280;52653;50.080;21.992;2023-06-26T05:56:13;99048.98;;;23.09;60.51
65872;BME280;52653;50.080;21.992;2023-06-26T05:58:47;99045.90;;;22.95;62.21
65872;BME280;52653;50.080;21.992;2023-06-26T06:01:20;99046.76;;;22.90;62.20
65872;BME280;52653;50.080;21.992;2023-06-26T06:03:53;99046.79;;;22.86;62.45
65872;BME280;52653;50.080;21.992;2023-06-26T06:06:28;99044.01;;;22.97;63.24
65872;BME280;52653;50.080;21.992;2023-06-26T06:09:01;99042.47;;;23.05;62.73
65872;BME280;52653;50.080;21.992;2023-06-26T06:11:35;99044.98;;;22.96;62.60
65872;BME280;52653;50.080;21.992;2023-06-26T06:14:09;99038.17;;;22.99;62.86
65872;BME280;52653;50.080;21.992;2023-06-26T06:16:42;99035.40;;;23.06;62.64
65872;BME280;52653;50.080;21.992;2023-06-26T06:19:14;99037.09;;;23.10;62.47
65872;BME280;52653;50.080;21.992;2023-06-26T06:21:47;99038.11;;;23.11;62.56
65872;BME280;52653;50.080;21.992;2023-06-26T06:24:19;99039.02;;;23.11;62.52
65872;BME280;52653;50.080;21.992;2023-06-26T06:26:54;99037.42;;;23.17;62.84
65872;BME280;52653;50.080;21.992;2023-06-26T06:29:27;99034.98;;;23.24;62.81
65872;BME280;52653;50.080;21.992;2023-06-26T06:31:59;99033.79;;;23.29;62.43
65872;BME280;52653;50.080;21.992;2023-06-26T06:34:32;99038.27;;;23.35;62.81
65872;BME280;52653;50.080;21.992;2023-06-26T06:37:05;99038.45;;;23.40;61.99
65872;BME280;52653;50.080;21.992;2023-06-26T06:39:41;99038.44;;;23.55;62.15
65872;BME280;52653;50.080;21.992;2023-06-26T06:42:14;99038.20;;;23.62;61.16
65872;BME280;52653;50.080;21.992;2023-06-26T06:44:47;99038.48;;;23.66;60.73
65872;BME280;52653;50.080;21.992;2023-06-26T06:47:20;99034.58;;;23.70;60.72
65872;BME280;52653;50.080;21.992;2023-06-26T06:49:53;99030.95;;;23.82;61.66
65872;BME280;52653;50.080;21.992;2023-06-26T06:52:28;99025.11;;;23.95;60.36
65872;BME280;52653;50.080;21.992;2023-06-26T06:55:06;99025.98;;;24.09;60.79
65872;BME280;52653;50.080;21.992;2023-06-26T06:57:40;99027.98;;;24.14;59.32
65872;BME280;52653;50.080;21.992;2023-06-26T07:00:18;99026.85;;;24.18;59.76
65872;BME280;52653;50.080;21.992;2023-06-26T07:02:51;99025.50;;;24.27;59.66
65872;BME280;52653;50.080;21.992;2023-06-26T07:05:24;99030.59;;;24.37;59.20
65872;BME280;52653;50.080;21.992;2023-06-26T07:07:56;99029.89;;;24.47;59.51
65872;BME280;52653;50.080;21.992;2023-06-26T07:10:32;99028.23;;;24.53;58.46
65872;BME280;52653;50.080;21.992;2023-06-26T07:13:06;99023.22;;;24.56;58.63
65872;BME280;52653;50.080;21.992;2023-06-26T07:15:39;99028.91;;;24.65;58.44
65872;BME280;52653;50.080;21.992;2023-06-26T07:18:11;99024.03;;;24.78;58.86
65872;BME280;52653;50.080;21.992;2023-06-26T07:20:44;99027.13;;;24.93;58.25
65872;BME280;52653;50.080;21.992;2023-06-26T07:23:17;99028.16;;;25.02;56.08
65872;BME280;52653;50.080;21.992;2023-06-26T07:25:50;99027.84;;;25.04;55.35
65872;BME280;52653;50.080;21.992;2023-06-26T07:28:23;99027.86;;;25.08;55.05
65872;BME280;52653;50.080;21.992;2023-06-26T07:30:55;99023.72;;;25.09;55.72
65872;BME280;52653;50.080;21.992;2023-06-26T07:33:28;99023.69;;;25.12;55.58
65872;BME280;52653;50.080;21.992;2023-06-26T07:36:00;99023.04;;;25.06;54.23
65872;BME280;52653;50.080;21.992;2023-06-26T07:38:34;99024.69;;;25.02;53.81
65872;BME280;52653;50.080;21.992;2023-06-26T07:41:11;99020.46;;;25.09;54.18
65872;BME280;52653;50.080;21.992;2023-06-26T07:43:44;99015.09;;;25.21;54.90
65872;BME280;52653;50.080;21.992;2023-06-26T07:46:16;99014.33;;;25.37;54.89
65872;BME280;52653;50.080;21.992;2023-06-26T07:48:49;99018.87;;;25.47;54.61
65872;BME280;52653;50.080;21.992;2023-06-26T07:51:23;99018.19;;;25.48;53.44
65872;BME280;52653;50.080;21.992;2023-06-26T07:53:56;99016.55;;;25.46;53.35
65872;BME280;52653;50.080;21.992;2023-06-26T07:56:28;99020.23;;;25.33;52.43
65872;BME280;52653;50.080;21.992;2023-06-26T07:59:01;99015.36;;;25.28;53.67
65872;BME280;52653;50.080;21.992;2023-06-26T08:01:35;99013.33;;;25.32;54.92
65872;BME280;52653;50.080;21.992;2023-06-26T08:04:08;99014.61;;;25.36;54.72
65872;BME280;52653;50.080;21.992;2023-06-26T08:06:42;99014.32;;;25.45;54.64
65872;BME280;52653;50.080;21.992;2023-06-26T08:09:15;99014.41;;;25.46;54.98
65872;BME280;52653;50.080;21.992;2023-06-26T08:11:48;99016.26;;;25.60;55.25
65872;BME280;52653;50.080;21.992;2023-06-26T08:14:21;99015.58;;;25.77;53.76
65872;BME280;52653;50.080;21.992;2023-06-26T08:16:54;99020.31;;;25.76;52.01
65872;BME280;52653;50.080;21.992;2023-06-26T08:19:27;99017.08;;;25.89;53.92
65872;BME280;52653;50.080;21.992;2023-06-26T08:22:00;99019.77;;;25.99;52.61
65872;BME280;52653;50.080;21.992;2023-06-26T08:24:33;99020.20;;;26.00;51.23
65872;BME280;52653;50.080;21.992;2023-06-26T08:27:08;99019.14;;;26.07;51.88
65872;BME280;52653;50.080;21.992;2023-06-26T08:29:42;99018.52;;;26.32;52.39
65872;BME280;52653;50.080;21.992;2023-06-26T08:32:14;99017.17;;;26.57;52.46
65872;BME280;52653;50.080;21.992;2023-06-26T08:34:47;99016.52;;;26.73;51.57
65872;BME280;52653;50.080;21.992;2023-06-26T08:37:21;99019.72;;;26.85;50.55
65872;BME280;52653;50.080;21.992;2023-06-26T08:39:54;99012.63;;;26.85;49.10
65872;BME280;52653;50.080;21.992;2023-06-26T08:42:27;99014.94;;;26.86;48.91
65872;BME280;52653;50.080;21.992;2023-06-26T08:45:00;99012.80;;;26.86;48.56
65872;BME280;52653;50.080;21.992;2023-06-26T08:47:35;99016.02;;;26.86;48.45
65872;BME280;52653;50.080;21.992;2023-06-26T08:50:12;99009.60;;;27.06;49.14
65872;BME280;52653;50.080;21.992;2023-06-26T08:52:53;99009.90;;;27.32;49.10
65872;BME280;52653;50.080;21.992;2023-06-26T08:55:28;99009.64;;;27.26;47.30
65872;BME280;52653;50.080;21.992;2023-06-26T08:58:01;99015.23;;;27.01;45.45
65872;BME280;52653;50.080;21.992;2023-06-26T09:00:34;99015.28;;;26.91;44.84
65872;BME280;52653;50.080;21.992;2023-06-26T09:03:13;99014.58;;;26.98;44.65
65872;BME280;52653;50.080;21.992;2023-06-26T09:05:46;99007.55;;;27.18;45.37
65872;BME280;52653;50.080;21.992;2023-06-26T09:08:18;99016.40;;;27.32;43.54
65872;BME280;52653;50.080;21.992;2023-06-26T09:10:51;99014.06;;;27.18;42.29
65872;BME280;52653;50.080;21.992;2023-06-26T09:13:24;99018.11;;;27.10;42.92
65872;BME280;52653;50.080;21.992;2023-06-26T09:16:03;99017.19;;;27.01;41.81
65872;BME280;52653;50.080;21.992;2023-06-26T09:18:36;99013.93;;;26.97;42.16
65872;BME280;52653;50.080;21.992;2023-06-26T09:21:09;99012.27;;;27.09;42.34
65872;BME280;52653;50.080;21.992;2023-06-26T09:23:42;99008.56;;;27.17;40.95
65872;BME280;52653;50.080;21.992;2023-06-26T09:26:16;99006.66;;;27.30;41.43
65872;BME280;52653;50.080;21.992;2023-06-26T09:28:50;99007.52;;;27.46;41.30
65872;BME280;52653;50.080;21.992;2023-06-26T09:31:25;99012.23;;;27.52;41.16
65872;BME280;52653;50.080;21.992;2023-06-26T09:34:11;99005.76;;;27.61;41.19
65872;BME280;52653;50.080;21.992;2023-06-26T09:36:46;99005.39;;;27.72;41.33
65872;BME280;52653;50.080;21.992;2023-06-26T09:39:21;99002.73;;;27.98;42.26
65872;BME280;52653;50.080;21.992;2023-06-26T09:41:54;99003.02;;;28.16;40.89
65872;BME280;52653;50.080;21.992;2023-06-26T09:44:28;98999.55;;;28.17;40.98
65872;BME280;52653;50.080;21.992;2023-06-26T09:47:05;98998.66;;;28.04;41.31
65872;BME280;52653;50.080;21.992;2023-06-26T09:49:42;98997.66;;;27.90;40.99
65872;BME280;52653;50.080;21.992;2023-06-26T09:52:16;98995.40;;;27.87;40.54
65872;BME280;52653;50.080;21.992;2023-06-26T09:54:49;98993.16;;;27.96;39.73
65872;BME280;52653;50.080;21.992;2023-06-26T09:57:22;98996.48;;;28.04;38.48
65872;BME280;52653;50.080;21.992;2023-06-26T09:59:55;98997.05;;;28.06;39.08
65872;BME280;52653;50.080;21.992;2023-06-26T10:02:27;98993.48;;;28.09;39.70
65872;BME280;52653;50.080;21.992;2023-06-26T10:05:00;98994.70;;;28.06;38.76
65872;BME280;52653;50.080;21.992;2023-06-26T10:07:34;98995.63;;;27.97;38.73
65872;BME280;52653;50.080;21.992;2023-06-26T10:10:09;98990.17;;;27.95;39.12
65872;BME280;52653;50.080;21.992;2023-06-26T10:12:47;98993.55;;;28.07;38.53
65872;BME280;52653;50.080;21.992;2023-06-26T10:15:21;98989.77;;;28.15;39.07
65872;BME280;52653;50.080;21.992;2023-06-26T10:17:58;98992.52;;;28.19;38.64
65872;BME280;52653;50.080;21.992;2023-06-26T10:20:32;98990.73;;;28.12;37.88
65872;BME280;52653;50.080;21.992;2023-06-26T10:23:07;98986.73;;;28.08;37.24
65872;BME280;52653;50.080;21.992;2023-06-26T10:25:44;98985.58;;;28.07;37.81
65872;BME280;52653;50.080;21.992;2023-06-26T10:28:18;98979.43;;;28.18;37.96
65872;BME280;52653;50.080;21.992;2023-06-26T10:30:52;98979.27;;;28.27;38.57
65872;BME280;52653;50.080;21.992;2023-06-26T10:33:27;98973.72;;;28.35;39.16
65872;BME280;52653;50.080;21.992;2023-06-26T10:36:15;98977.86;;;28.46;39.31
65872;BME280;52653;50.080;21.992;2023-06-26T10:38:53;98976.86;;;28.27;37.91
65872;BME280;52653;50.080;21.992;2023-06-26T10:41:27;98976.37;;;28.09;38.61
65872;BME280;52653;50.080;21.992;2023-06-26T10:44:11;98975.08;;;27.88;38.96
65872;BME280;52653;50.080;21.992;2023-06-26T10:46:54;98970.98;;;27.75;39.60
65872;BME280;52653;50.080;21.992;2023-06-26T10:49:29;98970.99;;;27.81;40.89
65872;BME280;52653;50.080;21.992;2023-06-26T10:52:04;98970.41;;;28.01;40.19
65872;BME280;52653;50.080;21.992;2023-06-26T10:54:48;98967.48;;;28.08;37.93
65872;BME280;52653;50.080;21.992;2023-06-26T10:57:25;98966.67;;;28.11;38.31
65872;BME280;52653;50.080;21.992;2023-06-26T11:00:11;98966.20;;;28.12;38.31
65872;BME280;52653;50.080;21.992;2023-06-26T11:02:49;98963.20;;;28.09;38.67
65872;BME280;52653;50.080;21.992;2023-06-26T11:05:28;98959.63;;;28.09;38.23
65872;BME280;52653;50.080;21.992;2023-06-26T11:08:08;98954.64;;;28.19;38.54
65872;BME280;52653;50.080;21.992;2023-06-26T11:10:53;98959.26;;;28.29;38.03
65872;BME280;52653;50.080;21.992;2023-06-26T11:13:27;98956.67;;;28.38;36.17
65872;BME280;52653;50.080;21.992;2023-06-26T11:16:00;98952.00;;;28.48;36.85
65872;BME280;52653;50.080;21.992;2023-06-26T11:18:34;98952.80;;;28.64;36.75
65872;BME280;52653;50.080;21.992;2023-06-26T11:21:10;98953.41;;;28.65;35.81
65872;BME280;52653;50.080;21.992;2023-06-26T11:23:46;98950.65;;;28.49;37.12
65872;BME280;52653;50.080;21.992;2023-06-26T11:26:21;98947.20;;;28.56;37.43
65872;BME280;52653;50.080;21.992;2023-06-26T11:28:56;98947.48;;;28.61;37.51
65872;BME280;52653;50.080;21.992;2023-06-26T11:31:30;98949.77;;;28.59;35.71
65872;BME280;52653;50.080;21.992;2023-06-26T11:34:04;98942.89;;;28.54;36.10
65872;BME280;52653;50.080;21.992;2023-06-26T11:36:39;98944.58;;;28.59;35.88
65872;BME280;52653;50.080;21.992;2023-06-26T11:39:14;98943.29;;;28.65;35.93
65872;BME280;52653;50.080;21.992;2023-06-26T11:41:48;98938.98;;;28.86;36.87
65872;BME280;52653;50.080;21.992;2023-06-26T11:44:22;98935.70;;;29.25;38.28
65872;BME280;52653;50.080;21.992;2023-06-26T11:46:55;98937.02;;;29.57;36.39
65872;BME280;52653;50.080;21.992;2023-06-26T11:49:29;98938.13;;;29.59;35.06
65872;BME280;52653;50.080;21.992;2023-06-26T11:52:04;98939.21;;;29.77;35.97
65872;BME280;52653;50.080;21.992;2023-06-26T11:54:36;98936.48;;;30.05;34.98
65872;BME280;52653;50.080;21.992;2023-06-26T11:57:14;98938.83;;;30.20;33.51
65872;BME280;52653;50.080;21.992;2023-06-26T11:59:51;98934.17;;;30.22;33.80
65872;BME280;52653;50.080;21.992;2023-06-26T12:02:24;98933.55;;;30.15;34.63
65872;BME280;52653;50.080;21.992;2023-06-26T12:04:58;98938.85;;;30.05;33.94
65872;BME280;52653;50.080;21.992;2023-06-26T12:07:31;98934.27;;;29.93;34.51
65872;BME280;52653;50.080;21.992;2023-06-26T12:10:05;98933.02;;;29.71;34.27
65872;BME280;52653;50.080;21.992;2023-06-26T12:12:39;98930.73;;;29.59;35.68
65872;BME280;52653;50.080;21.992;2023-06-26T12:15:16;98925.81;;;29.49;35.94
65872;BME280;52653;50.080;21.992;2023-06-26T12:17:48;98925.59;;;29.35;35.93
65872;BME280;52653;50.080;21.992;2023-06-26T12:20:22;98926.52;;;29.21;34.92
65872;BME280;52653;50.080;21.992;2023-06-26T12:22:55;98926.27;;;29.19;35.95
65872;BME280;52653;50.080;21.992;2023-06-26T12:25:27;98928.91;;;29.16;36.48
65872;BME280;52653;50.080;21.992;2023-06-26T12:28:00;98931.11;;;29.04;36.91
65872;BME280;52653;50.080;21.992;2023-06-26T12:30:33;98931.05;;;28.88;38.15
65872;BME280;52653;50.080;21.992;2023-06-26T12:33:15;98933.21;;;28.76;37.50
65872;BME280;52653;50.080;21.992;2023-06-26T12:35:48;98935.46;;;28.60;36.51
65872;BME280;52653;50.080;21.992;2023-06-26T12:38:21;98931.12;;;28.56;37.27
65872;BME280;52653;50.080;21.992;2023-06-26T12:40:58;98927.21;;;28.65;37.27
65872;BME280;52653;50.080;21.992;2023-06-26T12:43:30;98927.31;;;28.83;38.24
65872;BME280;52653;50.080;21.992;2023-06-26T12:46:03;98925.91;;;28.99;37.85
65872;BME280;52653;50.080;21.992;2023-06-26T12:48:40;98922.88;;;29.11;38.04
65872;BME280;52653;50.080;21.992;2023-06-26T12:51:16;98921.06;;;29.29;37.00
65872;BME280;52653;50.080;21.992;2023-06-26T12:53:49;98920.64;;;29.42;35.74
65872;BME280;52653;50.080;21.992;2023-06-26T12:56:21;98920.42;;;29.51;34.79
65872;BME280;52653;50.080;21.992;2023-06-26T12:58:54;98917.55;;;29.55;35.86
65872;BME280;52653;50.080;21.992;2023-06-26T13:01:26;98920.80;;;29.69;36.39
65872;BME280;52653;50.080;21.992;2023-06-26T13:04:02;98916.80;;;29.75;34.54
65872;BME280;52653;50.080;21.992;2023-06-26T13:06:35;98914.30;;;29.84;35.11
65872;BME280;52653;50.080;21.992;2023-06-26T13:09:11;98909.39;;;29.82;33.84
65872;BME280;52653;50.080;21.992;2023-06-26T13:11:44;98905.18;;;29.79;35.38
65872;BME280;52653;50.080;21.992;2023-06-26T13:14:18;98908.59;;;29.85;35.63
65872;BME280;52653;50.080;21.992;2023-06-26T13:16:51;98905.08;;;29.86;35.80
65872;BME280;52653;50.080;21.992;2023-06-26T13:19:24;98898.20;;;29.94;35.68
65872;BME280;52653;50.080;21.992;2023-06-26T13:21:57;98897.23;;;30.03;35.14
65872;BME280;52653;50.080;21.992;2023-06-26T13:24:29;98895.29;;;30.14;36.14
65872;BME280;52653;50.080;21.992;2023-06-26T13:27:04;98889.86;;;30.16;35.65